sensor_id;sensor_type;location;lat;lon;timestamp;temperature;humidity
7016;DHT22;3548;48.402;9.990;2022-12-18T00:00:44;-4.60;99.90
7016;DHT22;3548;48.402;9.990;2022-12-18T00:03:12;-4.70;99.90
7016;DHT22;3548;48.402;9.990;2022-12-18T00:05:46;-4.80;99.90
7016;DHT22;3548;48.402;9.990;2022-12-18T00:08:12;-4.80;99.90
7016;DHT22;3548;48.402;9.990;2022-12-18T00:10:37;-4.70;99.90
7016;DHT22;3548;48.402;9.990;2022-12-18T00:13:03;-4.60;99.90
7016;DHT22;3548;48.402;9.990;2022-12-18T00:15:28;-4.60;99.90
7016;DHT22;3548;48.402;9.990;2022-12-18T00:17:54;-4.50;99.90
7016;DHT22;3548;48.402;9.990;2022-12-18T00:20:20;-4.50;99.90
7016;DHT22;3548;48.402;9.990;2022-12-18T00:22:51;-4.60;99.90
7016;DHT22;3548;48.402;9.990;2022-12-18T00:25:17;-4.70;99.90
7016;DHT22;3548;48.402;9.990;2022-12-18T00:27:43;-4.70;99.90
7016;DHT22;3548;48.402;9.990;2022-12-18T00:30:09;-4.80;99.90
7016;DHT22;3548;48.402;9.990;2022-12-18T00:32:35;-4.80;99.90
7016;DHT22;3548;48.402;9.990;2022-12-18T00:35:00;-5.00;99.90
7016;DHT22;3548;48.402;9.990;2022-12-18T00:37:26;-5.00;99.90
7016;DHT22;3548;48.402;9.990;2022-12-18T00:39:51;-5.00;99.90
7016;DHT22;3548;48.402;9.990;2022-12-18T00:42:17;-5.10;99.90
7016;DHT22;3548;48.402;9.990;2022-12-18T00:45:01;-5.00;99.90
7016;DHT22;3548;48.402;9.990;2022-12-18T00:47:27;-5.00;99.90
7016;DHT22;3548;48.402;9.990;2022-12-18T00:49:53;-5.00;99.90
7016;DHT22;3548;48.402;9.990;2022-12-18T00:52:18;-5.00;99.90
7016;DHT22;3548;48.402;9.990;2022-12-18T00:54:44;-5.00;99.90
7016;DHT22;3548;48.402;9.990;2022-12-18T00:57:09;-5.00;99.90
7016;DHT22;3548;48.402;9.990;2022-12-18T00:59:35;-5.10;99.90
7016;DHT22;3548;48.402;9.990;2022-12-18T01:02:00;-5.10;99.90
7016;DHT22;3548;48.402;9.990;2022-12-18T01:04:26;-5.10;99.90
7016;DHT22;3548;48.402;9.990;2022-12-18T01:06:52;-5.10;99.90
7016;DHT22;3548;48.402;9.990;2022-12-18T01:09:17;-5.10;99.90
7016;DHT22;3548;48.402;9.990;2022-12-18T01:11:43;-5.10;99.90
7016;DHT22;3548;48.402;9.990;2022-12-18T01:14:08;-5.10;99.90
7016;DHT22;3548;48.402;9.990;2022-12-18T01:16:34;-5.20;99.90
7016;DHT22;3548;48.402;9.990;2022-12-18T01:19:00;-5.00;99.90
7016;DHT22;3548;48.402;9.990;2022-12-18T01:21:25;-4.90;99.90
7016;DHT22;3548;48.402;9.990;2022-12-18T01:23:52;-4.80;99.90
7016;DHT22;3548;48.402;9.990;2022-12-18T01:26:19;-4.70;99.90
7016;DHT22;3548;48.402;9.990;2022-12-18T01:28:46;-4.70;99.90
7016;DHT22;3548;48.402;9.990;2022-12-18T01:31:18;-4.60;99.90
7016;DHT22;3548;48.402;9.990;2022-12-18T01:33:45;-4.70;99.90
7016;DHT22;3548;48.402;9.990;2022-12-18T01:38:43;-4.70;99.90
7016;DHT22;3548;48.402;9.990;2022-12-18T01:41:09;-4.70;99.90
7016;DHT22;3548;48.402;9.990;2022-12-18T01:43:55;-4.70;99.90
7016;DHT22;3548;48.402;9.990;2022-12-18T01:46:26;-4.70;99.90
7016;DHT22;3548;48.402;9.990;2022-12-18T01:49:00;-4.70;99.90
7016;DHT22;3548;48.402;9.990;2022-12-18T01:51:27;-4.80;99.90
7016;DHT22;3548;48.402;9.990;2022-12-18T01:53:53;-4.70;99.90
7016;DHT22;3548;48.402;9.990;2022-12-18T01:56:20;-4.70;99.90
7016;DHT22;3548;48.402;9.990;2022-12-18T01:58:53;-4.70;99.90
7016;DHT22;3548;48.402;9.990;2022-12-18T02:01:22;-4.60;99.90
7016;DHT22;3548;48.402;9.990;2022-12-18T02:03:48;-4.60;99.90
7016;DHT22;3548;48.402;9.990;2022-12-18T02:06:37;-4.60;99.90
7016;DHT22;3548;48.402;9.990;2022-12-18T02:09:11;-4.50;99.90
7016;DHT22;3548;48.402;9.990;2022-12-18T02:14:55;-4.50;99.90
7016;DHT22;3548;48.402;9.990;2022-12-18T02:17:35;-4.40;99.90
7016;DHT22;3548;48.402;9.990;2022-12-18T02:20:21;-4.40;99.90
7016;DHT22;3548;48.402;9.990;2022-12-18T02:28:26;-4.70;99.90
7016;DHT22;3548;48.402;9.990;2022-12-18T02:30:56;-4.80;99.90
7016;DHT22;3548;48.402;9.990;2022-12-18T02:33:24;-4.80;99.90
7016;DHT22;3548;48.402;9.990;2022-12-18T02:35:51;-4.80;99.90
7016;DHT22;3548;48.402;9.990;2022-12-18T02:38:17;-4.80;99.90
7016;DHT22;3548;48.402;9.990;2022-12-18T02:40:44;-4.70;99.90
7016;DHT22;3548;48.402;9.990;2022-12-18T02:43:14;-4.60;99.90
7016;DHT22;3548;48.402;9.990;2022-12-18T02:45:56;-4.80;99.90
7016;DHT22;3548;48.402;9.990;2022-12-18T02:48:33;-4.90;99.90
7016;DHT22;3548;48.402;9.990;2022-12-18T02:51:06;-4.90;99.90
7016;DHT22;3548;48.402;9.990;2022-12-18T02:53:36;-4.80;99.90
7016;DHT22;3548;48.402;9.990;2022-12-18T02:56:21;-4.80;99.90
7016;DHT22;3548;48.402;9.990;2022-12-18T02:59:02;-4.70;99.90
7016;DHT22;3548;48.402;9.990;2022-12-18T03:01:58;-4.60;99.90
7016;DHT22;3548;48.402;9.990;2022-12-18T03:04:36;-4.60;99.90
7016;DHT22;3548;48.402;9.990;2022-12-18T03:07:08;-4.50;99.90
7016;DHT22;3548;48.402;9.990;2022-12-18T03:09:38;-4.40;99.90
7016;DHT22;3548;48.402;9.990;2022-12-18T03:15:17;-4.40;99.90
7016;DHT22;3548;48.402;9.990;2022-12-18T03:17:48;-4.30;99.90
7016;DHT22;3548;48.402;9.990;2022-12-18T03:20:19;-4.30;99.90
7016;DHT22;3548;48.402;9.990;2022-12-18T03:22:47;-4.30;99.90
7016;DHT22;3548;48.402;9.990;2022-12-18T03:25:15;-4.30;99.90
7016;DHT22;3548;48.402;9.990;2022-12-18T03:27:47;-4.30;99.90
7016;DHT22;3548;48.402;9.990;2022-12-18T03:30:15;-4.40;99.90
7016;DHT22;3548;48.402;9.990;2022-12-18T03:32:50;-4.40;99.90
7016;DHT22;3548;48.402;9.990;2022-12-18T03:35:24;-4.50;99.90
7016;DHT22;3548;48.402;9.990;2022-12-18T03:37:52;-4.50;99.90
7016;DHT22;3548;48.402;9.990;2022-12-18T03:40:19;-4.60;99.90
7016;DHT22;3548;48.402;9.990;2022-12-18T03:42:52;-4.70;99.90
7016;DHT22;3548;48.402;9.990;2022-12-18T03:45:28;-4.60;99.90
7016;DHT22;3548;48.402;9.990;2022-12-18T03:48:01;-4.50;99.90
7016;DHT22;3548;48.402;9.990;2022-12-18T03:55:53;-4.60;99.90
7016;DHT22;3548;48.402;9.990;2022-12-18T03:58:23;-4.60;99.90
7016;DHT22;3548;48.402;9.990;2022-12-18T04:00:51;-4.70;99.90
7016;DHT22;3548;48.402;9.990;2022-12-18T04:03:19;-4.70;99.90
7016;DHT22;3548;48.402;9.990;2022-12-18T04:05:48;-4.60;99.90
7016;DHT22;3548;48.402;9.990;2022-12-18T04:08:14;-4.70;99.90
7016;DHT22;3548;48.402;9.990;2022-12-18T04:10:40;-4.70;99.90
7016;DHT22;3548;48.402;9.990;2022-12-18T04:13:06;-4.80;99.90
7016;DHT22;3548;48.402;9.990;2022-12-18T04:15:34;-4.80;99.90
7016;DHT22;3548;48.402;9.990;2022-12-18T04:18:01;-4.80;99.90
7016;DHT22;3548;48.402;9.990;2022-12-18T04:20:27;-4.60;99.90
7016;DHT22;3548;48.402;9.990;2022-12-18T04:22:52;-4.50;99.90
7016;DHT22;3548;48.402;9.990;2022-12-18T04:25:18;-4.50;99.90
7016;DHT22;3548;48.402;9.990;2022-12-18T04:27:43;-4.60;99.90
7016;DHT22;3548;48.402;9.990;2022-12-18T04:30:09;-4.70;99.90
7016;DHT22;3548;48.402;9.990;2022-12-18T04:32:35;-4.80;99.90
7016;DHT22;3548;48.402;9.990;2022-12-18T04:35:01;-4.80;99.90
7016;DHT22;3548;48.402;9.990;2022-12-18T04:37:28;-4.80;99.90
7016;DHT22;3548;48.402;9.990;2022-12-18T04:39:53;-5.00;99.90
7016;DHT22;3548;48.402;9.990;2022-12-18T04:42:19;-5.00;99.90
7016;DHT22;3548;48.402;9.990;2022-12-18T04:44:45;-5.00;99.90
7016;DHT22;3548;48.402;9.990;2022-12-18T04:47:10;-5.20;99.90
7016;DHT22;3548;48.402;9.990;2022-12-18T04:49:36;-5.30;99.90
7016;DHT22;3548;48.402;9.990;2022-12-18T04:52:01;-5.20;99.90
7016;DHT22;3548;48.402;9.990;2022-12-18T04:54:27;-5.10;99.90
7016;DHT22;3548;48.402;9.990;2022-12-18T04:56:53;-5.00;99.90
7016;DHT22;3548;48.402;9.990;2022-12-18T04:59:18;-4.80;99.90
7016;DHT22;3548;48.402;9.990;2022-12-18T05:01:44;-4.80;99.90
7016;DHT22;3548;48.402;9.990;2022-12-18T05:04:11;-4.70;99.90
7016;DHT22;3548;48.402;9.990;2022-12-18T05:06:36;-4.70;99.90
7016;DHT22;3548;48.402;9.990;2022-12-18T05:09:02;-4.60;99.90
7016;DHT22;3548;48.402;9.990;2022-12-18T05:11:28;-4.60;99.90
7016;DHT22;3548;48.402;9.990;2022-12-18T05:13:53;-4.80;99.90
7016;DHT22;3548;48.402;9.990;2022-12-18T05:16:19;-4.90;99.90
7016;DHT22;3548;48.402;9.990;2022-12-18T05:18:44;-4.90;99.90
7016;DHT22;3548;48.402;9.990;2022-12-18T05:21:10;-5.00;99.90
7016;DHT22;3548;48.402;9.990;2022-12-18T05:23:37;-5.10;99.90
7016;DHT22;3548;48.402;9.990;2022-12-18T05:26:04;-5.20;99.90
7016;DHT22;3548;48.402;9.990;2022-12-18T05:28:32;-5.10;99.90
7016;DHT22;3548;48.402;9.990;2022-12-18T05:31:00;-5.10;99.90
7016;DHT22;3548;48.402;9.990;2022-12-18T05:33:28;-5.10;99.90
7016;DHT22;3548;48.402;9.990;2022-12-18T05:36:00;-4.90;99.90
7016;DHT22;3548;48.402;9.990;2022-12-18T05:38:26;-4.80;99.90
7016;DHT22;3548;48.402;9.990;2022-12-18T05:40:53;-4.70;99.90
7016;DHT22;3548;48.402;9.990;2022-12-18T05:43:23;-4.60;99.90
7016;DHT22;3548;48.402;9.990;2022-12-18T05:45:49;-4.60;99.90
7016;DHT22;3548;48.402;9.990;2022-12-18T05:48:16;-4.70;99.90
7016;DHT22;3548;48.402;9.990;2022-12-18T05:50:43;-4.70;99.90
7016;DHT22;3548;48.402;9.990;2022-12-18T05:53:17;-4.70;99.90
7016;DHT22;3548;48.402;9.990;2022-12-18T05:55:43;-4.70;99.90
7016;DHT22;3548;48.402;9.990;2022-12-18T05:58:10;-4.50;99.90
7016;DHT22;3548;48.402;9.990;2022-12-18T06:00:38;-4.40;99.90
7016;DHT22;3548;48.402;9.990;2022-12-18T06:03:08;-4.30;99.90
7016;DHT22;3548;48.402;9.990;2022-12-18T06:05:44;-4.40;99.90
7016;DHT22;3548;48.402;9.990;2022-12-18T06:08:11;-4.40;99.90
7016;DHT22;3548;48.402;9.990;2022-12-18T06:10:37;-4.40;99.90
7016;DHT22;3548;48.402;9.990;2022-12-18T06:13:03;-4.50;99.90
7016;DHT22;3548;48.402;9.990;2022-12-18T06:15:29;-4.50;99.90
7016;DHT22;3548;48.402;9.990;2022-12-18T06:17:54;-4.50;99.90
7016;DHT22;3548;48.402;9.990;2022-12-18T06:20:20;-4.50;99.90
7016;DHT22;3548;48.402;9.990;2022-12-18T06:22:46;-4.60;99.90
7016;DHT22;3548;48.402;9.990;2022-12-18T06:25:12;-4.60;99.90
7016;DHT22;3548;48.402;9.990;2022-12-18T06:27:37;-4.60;99.90
7016;DHT22;3548;48.402;9.990;2022-12-18T06:30:04;-4.60;99.90
7016;DHT22;3548;48.402;9.990;2022-12-18T06:32:30;-4.60;99.90
7016;DHT22;3548;48.402;9.990;2022-12-18T06:34:55;-4.60;99.90
7016;DHT22;3548;48.402;9.990;2022-12-18T06:37:21;-4.70;99.90
7016;DHT22;3548;48.402;9.990;2022-12-18T06:39:50;-4.70;99.90
7016;DHT22;3548;48.402;9.990;2022-12-18T06:42:15;-4.70;99.90
7016;DHT22;3548;48.402;9.990;2022-12-18T06:44:41;-4.70;99.90
7016;DHT22;3548;48.402;9.990;2022-12-18T06:47:06;-4.60;99.90
7016;DHT22;3548;48.402;9.990;2022-12-18T06:49:32;-4.60;99.90
7016;DHT22;3548;48.402;9.990;2022-12-18T06:51:57;-4.60;99.90
7016;DHT22;3548;48.402;9.990;2022-12-18T06:54:23;-4.60;99.90
7016;DHT22;3548;48.402;9.990;2022-12-18T06:56:49;-4.60;99.90
7016;DHT22;3548;48.402;9.990;2022-12-18T06:59:14;-4.50;99.90
7016;DHT22;3548;48.402;9.990;2022-12-18T07:01:40;-4.50;99.90
7016;DHT22;3548;48.402;9.990;2022-12-18T07:04:06;-4.50;99.90
7016;DHT22;3548;48.402;9.990;2022-12-18T07:06:31;-4.40;99.90
7016;DHT22;3548;48.402;9.990;2022-12-18T07:08:57;-4.30;99.90
7016;DHT22;3548;48.402;9.990;2022-12-18T07:11:23;-4.40;99.90
7016;DHT22;3548;48.402;9.990;2022-12-18T07:13:48;-4.30;99.90
7016;DHT22;3548;48.402;9.990;2022-12-18T07:16:16;-4.30;99.90
7016;DHT22;3548;48.402;9.990;2022-12-18T07:18:42;-4.30;99.90
7016;DHT22;3548;48.402;9.990;2022-12-18T07:21:12;-4.30;99.90
7016;DHT22;3548;48.402;9.990;2022-12-18T07:23:38;-4.40;99.90
7016;DHT22;3548;48.402;9.990;2022-12-18T07:26:06;-4.40;99.90
7016;DHT22;3548;48.402;9.990;2022-12-18T07:28:33;-4.30;99.90
7016;DHT22;3548;48.402;9.990;2022-12-18T07:31:25;-4.30;99.90
7016;DHT22;3548;48.402;9.990;2022-12-18T07:33:51;-4.20;99.90
7016;DHT22;3548;48.402;9.990;2022-12-18T07:36:17;-4.10;99.90
7016;DHT22;3548;48.402;9.990;2022-12-18T07:38:46;-4.10;99.90
7016;DHT22;3548;48.402;9.990;2022-12-18T07:41:12;-4.10;99.90
7016;DHT22;3548;48.402;9.990;2022-12-18T07:43:39;-4.10;99.90
7016;DHT22;3548;48.402;9.990;2022-12-18T07:46:06;-4.10;99.90
7016;DHT22;3548;48.402;9.990;2022-12-18T07:48:33;-3.90;99.90
7016;DHT22;3548;48.402;9.990;2022-12-18T07:51:03;-3.80;99.90
7016;DHT22;3548;48.402;9.990;2022-12-18T07:53:30;-3.90;99.90
7016;DHT22;3548;48.402;9.990;2022-12-18T07:56:00;-3.90;99.90
7016;DHT22;3548;48.402;9.990;2022-12-18T07:58:26;-4.10;99.90
7016;DHT22;3548;48.402;9.990;2022-12-18T08:00:52;-4.00;99.90
7016;DHT22;3548;48.402;9.990;2022-12-18T08:03:18;-4.00;99.90
7016;DHT22;3548;48.402;9.990;2022-12-18T08:05:43;-3.90;99.90
7016;DHT22;3548;48.402;9.990;2022-12-18T08:08:09;-4.00;99.90
7016;DHT22;3548;48.402;9.990;2022-12-18T08:10:35;-3.90;99.90
7016;DHT22;3548;48.402;9.990;2022-12-18T08:13:01;-3.90;99.90
7016;DHT22;3548;48.402;9.990;2022-12-18T08:15:26;-3.90;99.90
7016;DHT22;3548;48.402;9.990;2022-12-18T08:17:52;-3.90;99.90
7016;DHT22;3548;48.402;9.990;2022-12-18T08:20:17;-3.80;99.90
7016;DHT22;3548;48.402;9.990;2022-12-18T08:22:44;-3.80;99.90
7016;DHT22;3548;48.402;9.990;2022-12-18T08:25:10;-3.70;99.90
7016;DHT22;3548;48.402;9.990;2022-12-18T08:27:36;-3.60;99.90
7016;DHT22;3548;48.402;9.990;2022-12-18T08:30:03;-3.50;99.90
7016;DHT22;3548;48.402;9.990;2022-12-18T08:32:29;-3.40;99.90
7016;DHT22;3548;48.402;9.990;2022-12-18T08:34:54;-3.30;99.90
7016;DHT22;3548;48.402;9.990;2022-12-18T08:37:20;-3.20;99.90
7016;DHT22;3548;48.402;9.990;2022-12-18T08:39:45;-3.20;99.90
7016;DHT22;3548;48.402;9.990;2022-12-18T08:42:11;-3.20;99.90
7016;DHT22;3548;48.402;9.990;2022-12-18T08:44:55;-3.30;99.90
7016;DHT22;3548;48.402;9.990;2022-12-18T08:47:21;-3.30;99.90
7016;DHT22;3548;48.402;9.990;2022-12-18T08:49:46;-3.20;99.90
7016;DHT22;3548;48.402;9.990;2022-12-18T08:52:12;-3.20;99.90
7016;DHT22;3548;48.402;9.990;2022-12-18T08:54:37;-3.00;99.90
7016;DHT22;3548;48.402;9.990;2022-12-18T08:57:03;-2.90;99.90
7016;DHT22;3548;48.402;9.990;2022-12-18T08:59:29;-2.80;99.90
7016;DHT22;3548;48.402;9.990;2022-12-18T09:01:55;-2.60;99.90
7016;DHT22;3548;48.402;9.990;2022-12-18T09:04:21;-2.40;99.90
7016;DHT22;3548;48.402;9.990;2022-12-18T09:06:47;-2.30;99.90
7016;DHT22;3548;48.402;9.990;2022-12-18T09:09:13;-2.40;99.90
7016;DHT22;3548;48.402;9.990;2022-12-18T09:11:38;-2.40;99.90
7016;DHT22;3548;48.402;9.990;2022-12-18T09:14:04;-2.50;99.90
7016;DHT22;3548;48.402;9.990;2022-12-18T09:16:30;-2.50;99.90
7016;DHT22;3548;48.402;9.990;2022-12-18T09:18:57;-2.50;99.90
7016;DHT22;3548;48.402;9.990;2022-12-18T09:21:29;-2.50;99.90
7016;DHT22;3548;48.402;9.990;2022-12-18T09:23:55;-2.30;99.90
7016;DHT22;3548;48.402;9.990;2022-12-18T09:26:22;-2.20;99.90
7016;DHT22;3548;48.402;9.990;2022-12-18T09:28:48;-2.10;99.90
7016;DHT22;3548;48.402;9.990;2022-12-18T09:31:14;-2.00;99.90
7016;DHT22;3548;48.402;9.990;2022-12-18T09:33:40;-2.00;99.90
7016;DHT22;3548;48.402;9.990;2022-12-18T09:36:08;-1.90;99.90
7016;DHT22;3548;48.402;9.990;2022-12-18T09:38:34;-1.80;99.90
7016;DHT22;3548;48.402;9.990;2022-12-18T09:41:26;-1.70;99.90
7016;DHT22;3548;48.402;9.990;2022-12-18T09:43:59;-1.60;99.90
7016;DHT22;3548;48.402;9.990;2022-12-18T09:46:39;-1.40;99.90
7016;DHT22;3548;48.402;9.990;2022-12-18T09:49:11;-1.40;99.90
7016;DHT22;3548;48.402;9.990;2022-12-18T09:51:52;-1.30;99.90
7016;DHT22;3548;48.402;9.990;2022-12-18T09:54:26;-1.30;99.90
7016;DHT22;3548;48.402;9.990;2022-12-18T09:56:53;-1.20;99.90
7016;DHT22;3548;48.402;9.990;2022-12-18T09:59:26;-1.20;99.90
7016;DHT22;3548;48.402;9.990;2022-12-18T10:01:54;-1.10;99.90
7016;DHT22;3548;48.402;9.990;2022-12-18T10:04:20;-1.10;99.90
7016;DHT22;3548;48.402;9.990;2022-12-18T10:06:53;-1.10;99.90
7016;DHT22;3548;48.402;9.990;2022-12-18T10:09:25;-1.10;99.90
7016;DHT22;3548;48.402;9.990;2022-12-18T10:12:08;-1.20;99.90
7016;DHT22;3548;48.402;9.990;2022-12-18T10:17:30;-1.10;99.90
7016;DHT22;3548;48.402;9.990;2022-12-18T10:23:12;-1.00;99.90
7016;DHT22;3548;48.402;9.990;2022-12-18T10:25:59;-0.90;99.90
7016;DHT22;3548;48.402;9.990;2022-12-18T10:28:27;-0.80;99.90
7016;DHT22;3548;48.402;9.990;2022-12-18T10:30:54;-0.80;99.90
7016;DHT22;3548;48.402;9.990;2022-12-18T10:33:22;-0.70;99.90
7016;DHT22;3548;48.402;9.990;2022-12-18T10:35:52;-0.80;99.90
7016;DHT22;3548;48.402;9.990;2022-12-18T10:43:47;-0.80;99.90
7016;DHT22;3548;48.402;9.990;2022-12-18T10:46:17;-0.80;99.90
7016;DHT22;3548;48.402;9.990;2022-12-18T10:48:51;-0.70;99.90
7016;DHT22;3548;48.402;9.990;2022-12-18T10:54:03;-0.60;99.90
7016;DHT22;3548;48.402;9.990;2022-12-18T10:56:32;-0.50;99.90
7016;DHT22;3548;48.402;9.990;2022-12-18T10:59:04;-0.50;99.90
7016;DHT22;3548;48.402;9.990;2022-12-18T11:01:52;-0.40;99.90
7016;DHT22;3548;48.402;9.990;2022-12-18T11:04:21;-0.50;99.90
7016;DHT22;3548;48.402;9.990;2022-12-18T11:07:04;-0.40;99.90
7016;DHT22;3548;48.402;9.990;2022-12-18T11:09:35;-0.40;99.90
7016;DHT22;3548;48.402;9.990;2022-12-18T11:12:03;-0.50;99.90
7016;DHT22;3548;48.402;9.990;2022-12-18T11:14:34;-0.50;99.90
7016;DHT22;3548;48.402;9.990;2022-12-18T11:17:00;-0.60;99.90
7016;DHT22;3548;48.402;9.990;2022-12-18T11:21:58;-0.60;99.90
7016;DHT22;3548;48.402;9.990;2022-12-18T11:24:33;-0.50;99.90
7016;DHT22;3548;48.402;9.990;2022-12-18T11:27:05;-0.50;99.90
7016;DHT22;3548;48.402;9.990;2022-12-18T11:29:36;-0.40;99.90
7016;DHT22;3548;48.402;9.990;2022-12-18T11:32:41;-0.50;99.90
7016;DHT22;3548;48.402;9.990;2022-12-18T11:35:21;-0.60;99.90
7016;DHT22;3548;48.402;9.990;2022-12-18T11:37:59;-0.70;99.90
7016;DHT22;3548;48.402;9.990;2022-12-18T11:40:41;-0.80;99.90
7016;DHT22;3548;48.402;9.990;2022-12-18T11:43:37;-1.00;99.90
7016;DHT22;3548;48.402;9.990;2022-12-18T11:46:06;-1.00;99.90
7016;DHT22;3548;48.402;9.990;2022-12-18T11:49:03;-0.90;99.90
7016;DHT22;3548;48.402;9.990;2022-12-18T11:51:39;-0.80;99.90
7016;DHT22;3548;48.402;9.990;2022-12-18T11:54:16;-0.60;99.90
7016;DHT22;3548;48.402;9.990;2022-12-18T11:57:06;-0.60;99.90
7016;DHT22;3548;48.402;9.990;2022-12-18T12:02:24;-0.50;99.90
7016;DHT22;3548;48.402;9.990;2022-12-18T12:13:28;-0.40;99.90
7016;DHT22;3548;48.402;9.990;2022-12-18T12:16:21;-0.50;99.90
7016;DHT22;3548;48.402;9.990;2022-12-18T12:21:39;-0.60;99.90
7016;DHT22;3548;48.402;9.990;2022-12-18T12:30:08;-0.50;99.90
7016;DHT22;3548;48.402;9.990;2022-12-18T12:33:05;-0.50;99.90
7016;DHT22;3548;48.402;9.990;2022-12-18T12:36:00;-0.60;99.90
7016;DHT22;3548;48.402;9.990;2022-12-18T12:38:40;-0.60;99.90
7016;DHT22;3548;48.402;9.990;2022-12-18T12:41:11;-0.60;99.90
7016;DHT22;3548;48.402;9.990;2022-12-18T12:43:58;-0.60;99.90
7016;DHT22;3548;48.402;9.990;2022-12-18T12:46:26;-0.50;99.90
7016;DHT22;3548;48.402;9.990;2022-12-18T12:48:56;-0.50;99.90
7016;DHT22;3548;48.402;9.990;2022-12-18T12:51:33;-0.60;99.90
7016;DHT22;3548;48.402;9.990;2022-12-18T12:54:01;-0.70;99.90
7016;DHT22;3548;48.402;9.990;2022-12-18T12:56:47;-0.70;99.90
7016;DHT22;3548;48.402;9.990;2022-12-18T12:59:22;-0.60;99.90
7016;DHT22;3548;48.402;9.990;2022-12-18T13:02:08;-0.60;99.90
7016;DHT22;3548;48.402;9.990;2022-12-18T13:04:52;-0.50;99.90
7016;DHT22;3548;48.402;9.990;2022-12-18T13:07:39;-0.50;99.90
7016;DHT22;3548;48.402;9.990;2022-12-18T13:23:38;-0.80;99.90
7016;DHT22;3548;48.402;9.990;2022-12-18T13:34:23;-1.20;99.90
7016;DHT22;3548;48.402;9.990;2022-12-18T13:36:50;-1.30;99.90
7016;DHT22;3548;48.402;9.990;2022-12-18T13:39:21;-1.30;99.90
7016;DHT22;3548;48.402;9.990;2022-12-18T13:41:53;-1.30;99.90
7016;DHT22;3548;48.402;9.990;2022-12-18T13:46:57;-1.40;99.90
7016;DHT22;3548;48.402;9.990;2022-12-18T13:49:38;-1.40;99.90
7016;DHT22;3548;48.402;9.990;2022-12-18T13:52:25;-1.40;99.90
7016;DHT22;3548;48.402;9.990;2022-12-18T13:54:59;-1.50;99.90
7016;DHT22;3548;48.402;9.990;2022-12-18T13:57:32;-1.60;99.90
7016;DHT22;3548;48.402;9.990;2022-12-18T13:59:59;-1.50;99.90
7016;DHT22;3548;48.402;9.990;2022-12-18T14:02:37;-1.50;99.90
7016;DHT22;3548;48.402;9.990;2022-12-18T14:05:03;-1.50;99.90
7016;DHT22;3548;48.402;9.990;2022-12-18T14:07:29;-1.50;99.90
7016;DHT22;3548;48.402;9.990;2022-12-18T14:09:59;-1.50;99.90
7016;DHT22;3548;48.402;9.990;2022-12-18T14:12:32;-1.40;99.90
7016;DHT22;3548;48.402;9.990;2022-12-18T14:20:52;-1.40;99.90
7016;DHT22;3548;48.402;9.990;2022-12-18T14:25:54;-1.50;99.90
7016;DHT22;3548;48.402;9.990;2022-12-18T14:28:20;-1.40;99.90
7016;DHT22;3548;48.402;9.990;2022-12-18T14:30:47;-1.30;99.90
7016;DHT22;3548;48.402;9.990;2022-12-18T14:33:22;-1.30;99.90
7016;DHT22;3548;48.402;9.990;2022-12-18T14:38:41;-1.20;99.90
7016;DHT22;3548;48.402;9.990;2022-12-18T14:41:10;-1.20;99.90
7016;DHT22;3548;48.402;9.990;2022-12-18T14:43:37;-1.30;99.90
7016;DHT22;3548;48.402;9.990;2022-12-18T14:46:05;-1.30;99.90
7016;DHT22;3548;48.402;9.990;2022-12-18T14:48:39;-1.40;99.90
7016;DHT22;3548;48.402;9.990;2022-12-18T14:51:19;-1.40;99.90
7016;DHT22;3548;48.402;9.990;2022-12-18T14:54:05;-1.50;99.90
7016;DHT22;3548;48.402;9.990;2022-12-18T14:56:45;-1.50;99.90
7016;DHT22;3548;48.402;9.990;2022-12-18T14:59:23;-1.60;99.90
7016;DHT22;3548;48.402;9.990;2022-12-18T15:02:21;-1.70;99.90
7016;DHT22;3548;48.402;9.990;2022-12-18T15:04:47;-1.70;99.90
7016;DHT22;3548;48.402;9.990;2022-12-18T15:07:21;-1.80;99.90
7016;DHT22;3548;48.402;9.990;2022-12-18T15:10:13;-1.80;99.90
7016;DHT22;3548;48.402;9.990;2022-12-18T15:18:05;-1.90;99.90
7016;DHT22;3548;48.402;9.990;2022-12-18T15:20:56;-1.90;99.90
7016;DHT22;3548;48.402;9.990;2022-12-18T15:23:22;-2.00;99.90
7016;DHT22;3548;48.402;9.990;2022-12-18T15:28:37;-2.00;99.90
7016;DHT22;3548;48.402;9.990;2022-12-18T15:34:05;-1.90;99.90
7016;DHT22;3548;48.402;9.990;2022-12-18T15:36:28;-1.90;99.90
7016;DHT22;3548;48.402;9.990;2022-12-18T15:38:56;-2.00;99.90
7016;DHT22;3548;48.402;9.990;2022-12-18T15:41:22;-2.00;99.90
7016;DHT22;3548;48.402;9.990;2022-12-18T15:43:51;-2.00;99.90
7016;DHT22;3548;48.402;9.990;2022-12-18T15:46:19;-2.20;99.90
7016;DHT22;3548;48.402;9.990;2022-12-18T15:48:48;-2.20;99.90
7016;DHT22;3548;48.402;9.990;2022-12-18T15:51:26;-2.20;99.90
7016;DHT22;3548;48.402;9.990;2022-12-18T15:53:54;-2.30;99.90
7016;DHT22;3548;48.402;9.990;2022-12-18T15:56:21;-2.20;99.90
7016;DHT22;3548;48.402;9.990;2022-12-18T15:59:14;-2.20;99.90
7016;DHT22;3548;48.402;9.990;2022-12-18T16:01:41;-2.20;99.90
7016;DHT22;3548;48.402;9.990;2022-12-18T16:04:11;-2.10;99.90
7016;DHT22;3548;48.402;9.990;2022-12-18T16:06:38;-2.20;99.90
7016;DHT22;3548;48.402;9.990;2022-12-18T16:09:04;-2.20;99.90
7016;DHT22;3548;48.402;9.990;2022-12-18T16:11:32;-2.20;99.90
7016;DHT22;3548;48.402;9.990;2022-12-18T16:16:51;-2.00;99.90
7016;DHT22;3548;48.402;9.990;2022-12-18T16:19:17;-2.00;99.90
7016;DHT22;3548;48.402;9.990;2022-12-18T16:21:43;-2.10;99.90
7016;DHT22;3548;48.402;9.990;2022-12-18T16:24:18;-2.20;99.90
7016;DHT22;3548;48.402;9.990;2022-12-18T16:26:44;-2.20;99.90
7016;DHT22;3548;48.402;9.990;2022-12-18T16:29:10;-2.30;99.90
7016;DHT22;3548;48.402;9.990;2022-12-18T16:31:36;-2.30;99.90
7016;DHT22;3548;48.402;9.990;2022-12-18T16:34:20;-2.40;99.90
7016;DHT22;3548;48.402;9.990;2022-12-18T16:36:50;-2.60;99.90
7016;DHT22;3548;48.402;9.990;2022-12-18T16:39:16;-2.50;99.90
7016;DHT22;3548;48.402;9.990;2022-12-18T16:41:42;-2.50;99.90
7016;DHT22;3548;48.402;9.990;2022-12-18T16:44:07;-2.60;99.90
7016;DHT22;3548;48.402;9.990;2022-12-18T16:46:33;-2.60;99.90
7016;DHT22;3548;48.402;9.990;2022-12-18T16:48:59;-2.60;99.90
7016;DHT22;3548;48.402;9.990;2022-12-18T16:51:26;-2.60;99.90
7016;DHT22;3548;48.402;9.990;2022-12-18T16:53:54;-2.50;99.90
7016;DHT22;3548;48.402;9.990;2022-12-18T16:56:20;-2.50;99.90
7016;DHT22;3548;48.402;9.990;2022-12-18T16:58:54;-2.50;99.90
7016;DHT22;3548;48.402;9.990;2022-12-18T17:01:21;-2.60;99.90
7016;DHT22;3548;48.402;9.990;2022-12-18T17:03:54;-2.50;99.90
7016;DHT22;3548;48.402;9.990;2022-12-18T17:06:21;-2.50;99.90
7016;DHT22;3548;48.402;9.990;2022-12-18T17:08:48;-2.50;99.90
7016;DHT22;3548;48.402;9.990;2022-12-18T17:11:13;-2.50;99.90
7016;DHT22;3548;48.402;9.990;2022-12-18T17:13:40;-2.50;99.90
7016;DHT22;3548;48.402;9.990;2022-12-18T17:16:06;-2.50;99.90
7016;DHT22;3548;48.402;9.990;2022-12-18T17:18:32;-2.50;99.90
7016;DHT22;3548;48.402;9.990;2022-12-18T17:21:04;-2.50;99.90
7016;DHT22;3548;48.402;9.990;2022-12-18T17:23:30;-2.60;99.90
7016;DHT22;3548;48.402;9.990;2022-12-18T17:25:57;-2.70;99.90
7016;DHT22;3548;48.402;9.990;2022-12-18T17:28:24;-2.70;99.90
7016;DHT22;3548;48.402;9.990;2022-12-18T17:30:51;-2.70;99.90
7016;DHT22;3548;48.402;9.990;2022-12-18T17:33:17;-2.70;99.90
7016;DHT22;3548;48.402;9.990;2022-12-18T17:35:43;-2.70;99.90
7016;DHT22;3548;48.402;9.990;2022-12-18T17:38:08;-2.70;99.90
7016;DHT22;3548;48.402;9.990;2022-12-18T17:40:34;-2.70;99.90
7016;DHT22;3548;48.402;9.990;2022-12-18T17:43:00;-2.80;99.90
7016;DHT22;3548;48.402;9.990;2022-12-18T17:45:27;-2.80;99.90
7016;DHT22;3548;48.402;9.990;2022-12-18T17:47:53;-2.80;99.90
7016;DHT22;3548;48.402;9.990;2022-12-18T17:50:19;-2.70;99.90
7016;DHT22;3548;48.402;9.990;2022-12-18T17:52:44;-2.70;99.90
7016;DHT22;3548;48.402;9.990;2022-12-18T17:55:10;-2.60;99.90
7016;DHT22;3548;48.402;9.990;2022-12-18T17:57:35;-2.60;99.90
7016;DHT22;3548;48.402;9.990;2022-12-18T18:00:03;-2.60;99.90
7016;DHT22;3548;48.402;9.990;2022-12-18T18:02:29;-2.60;99.90
7016;DHT22;3548;48.402;9.990;2022-12-18T18:04:54;-2.60;99.90